createdAt,value
2018-07-25T00:01:31.507Z,0.00
2018-07-25T00:02:31.478Z,0.00
2018-07-25T00:04:24.291Z,0.00
2018-07-25T00:05:24.252Z,0.00
2018-07-25T00:07:17.575Z,0.00
2018-07-25T00:08:17.539Z,0.00
2018-07-25T00:10:10.868Z,0.00
2018-07-25T00:11:10.822Z,0.00
2018-07-25T00:13:04.132Z,0.00
2018-07-25T00:14:04.113Z,0.00
2018-07-25T00:15:57.444Z,0.00
2018-07-25T00:16:57.396Z,0.00
2018-07-25T00:18:50.726Z,0.00
2018-07-25T00:19:50.693Z,0.00
2018-07-25T00:21:44.028Z,0.00
2018-07-25T00:22:43.988Z,0.00
2018-07-25T00:24:37.328Z,0.00
2018-07-25T00:25:37.278Z,0.00
2018-07-25T00:27:30.600Z,0.00
2018-07-25T00:28:30.544Z,0.00
2018-07-25T00:30:23.925Z,0.00
2018-07-25T00:31:23.839Z,0.00
2018-07-25T00:33:17.164Z,0.00
2018-07-25T00:34:17.142Z,0.00
2018-07-25T00:36:10.553Z,0.00
2018-07-25T00:37:10.440Z,0.00
2018-07-25T00:39:03.769Z,0.00
2018-07-25T00:40:03.754Z,0.00
2018-07-25T00:41:57.065Z,0.00
2018-07-25T00:42:57.005Z,0.00
2018-07-25T00:44:50.336Z,0.00
2018-07-25T00:45:50.299Z,0.00
2018-07-25T00:47:43.625Z,0.00
2018-07-25T00:48:43.584Z,0.00
2018-07-25T00:50:36.926Z,0.00
2018-07-25T00:51:36.904Z,0.00
2018-07-25T00:53:30.200Z,0.00
2018-07-25T00:54:30.190Z,0.00
2018-07-25T00:56:23.487Z,0.00
2018-07-25T00:57:23.456Z,0.00
2018-07-25T00:59:16.779Z,0.00
2018-07-25T01:00:16.754Z,0.00
2018-07-25T01:02:10.055Z,0.00
2018-07-25T01:03:10.037Z,0.00
2018-07-25T01:05:03.360Z,0.00
2018-07-25T01:06:03.321Z,0.00
2018-07-25T01:07:56.642Z,0.00
2018-07-25T01:08:56.603Z,0.00
2018-07-25T01:10:49.931Z,0.00
2018-07-25T01:11:49.892Z,0.00
2018-07-25T01:13:43.235Z,0.00
2018-07-25T01:14:43.181Z,0.00
2018-07-25T01:16:36.489Z,0.00
2018-07-25T01:17:36.468Z,0.00
2018-07-25T01:19:29.801Z,0.00
2018-07-25T01:20:29.742Z,0.00
2018-07-25T01:22:23.096Z,0.00
2018-07-25T01:23:23.047Z,0.00
2018-07-25T01:25:16.370Z,0.00
2018-07-25T01:26:16.317Z,0.00
2018-07-25T01:28:09.652Z,0.00
2018-07-25T01:29:09.638Z,0.00
2018-07-25T01:31:02.937Z,0.00
2018-07-25T01:32:02.901Z,0.00
2018-07-25T01:33:55.740Z,0.00
2018-07-25T01:34:55.702Z,0.00
2018-07-25T01:36:49.046Z,0.00
2018-07-25T01:37:48.998Z,0.00
2018-07-25T01:39:42.327Z,0.00
2018-07-25T01:40:42.279Z,0.00
2018-07-25T01:42:35.590Z,0.00
2018-07-25T01:43:35.565Z,0.00
2018-07-25T01:45:28.488Z,0.00
2018-07-25T01:46:28.346Z,0.00
2018-07-25T01:48:21.666Z,0.00
2018-07-25T01:49:21.646Z,0.00
2018-07-25T01:51:14.952Z,0.00
2018-07-25T01:52:14.916Z,0.00
2018-07-25T01:54:08.236Z,0.00
2018-07-25T01:55:08.211Z,0.00
2018-07-25T01:57:01.535Z,0.00
2018-07-25T01:58:01.518Z,0.00
2018-07-25T01:59:54.851Z,0.00
2018-07-25T02:00:54.786Z,0.00
2018-07-25T02:02:48.106Z,0.00
2018-07-25T02:03:48.095Z,0.00
2018-07-25T02:05:41.412Z,0.00
2018-07-25T02:06:41.366Z,0.00
2018-07-25T02:08:34.688Z,0.00
2018-07-25T02:09:34.703Z,0.00
2018-07-25T02:11:27.988Z,0.00
2018-07-25T02:12:27.941Z,0.00
2018-07-25T02:14:21.267Z,0.00
2018-07-25T02:15:21.232Z,0.00
2018-07-25T02:17:14.578Z,0.00
2018-07-25T02:18:14.538Z,0.00
2018-07-25T02:20:07.853Z,0.00
2018-07-25T02:21:07.817Z,0.00
2018-07-25T02:23:01.143Z,0.00
2018-07-25T02:24:01.094Z,0.00
2018-07-25T02:25:54.417Z,0.00
2018-07-25T02:26:54.373Z,0.00
2018-07-25T02:28:47.703Z,0.00
2018-07-25T02:29:47.667Z,0.00
2018-07-25T02:31:40.986Z,0.00
2018-07-25T02:32:40.942Z,0.00
2018-07-25T02:34:33.789Z,0.00
2018-07-25T02:35:33.734Z,0.00
2018-07-25T02:37:27.062Z,0.00
2018-07-25T02:38:27.018Z,0.00
2018-07-25T02:40:20.359Z,0.00
2018-07-25T02:41:20.323Z,0.00
2018-07-25T02:43:13.640Z,0.00
2018-07-25T02:44:13.619Z,0.00
2018-07-25T02:46:06.909Z,0.00
2018-07-25T02:47:06.880Z,0.00
2018-07-25T02:49:00.206Z,0.00
2018-07-25T02:50:00.163Z,0.00
2018-07-25T02:51:53.494Z,0.00
2018-07-25T02:52:53.456Z,0.00
2018-07-25T02:54:46.778Z,0.00
2018-07-25T02:55:46.728Z,0.00
2018-07-25T02:57:40.052Z,0.00
2018-07-25T02:58:40.027Z,0.00
2018-07-25T03:00:33.318Z,0.00
2018-07-25T03:01:33.293Z,0.00
2018-07-25T03:03:26.623Z,0.00
2018-07-25T03:04:26.575Z,0.00
2018-07-25T03:06:19.916Z,0.00
2018-07-25T03:07:19.870Z,0.00
2018-07-25T03:09:13.210Z,0.00
2018-07-25T03:10:13.145Z,0.00
2018-07-25T03:12:06.472Z,0.00
2018-07-25T03:13:06.428Z,0.00
2018-07-25T03:14:59.757Z,0.00
2018-07-25T03:15:59.713Z,0.00
2018-07-25T03:17:53.039Z,0.00
2018-07-25T03:18:52.988Z,0.00
2018-07-25T03:20:46.326Z,0.00
2018-07-25T03:21:46.276Z,0.00
2018-07-25T03:23:39.611Z,0.00
2018-07-25T03:24:39.556Z,0.00
2018-07-25T03:26:32.871Z,0.00
2018-07-25T03:27:32.848Z,0.00
2018-07-25T03:29:26.170Z,0.00
2018-07-25T03:30:26.126Z,0.00
2018-07-25T03:32:19.443Z,0.00
2018-07-25T03:33:19.435Z,0.00
2018-07-25T03:35:12.746Z,0.00
2018-07-25T03:36:12.706Z,0.00
2018-07-25T03:38:06.013Z,0.00
2018-07-25T03:39:06.003Z,0.00
2018-07-25T03:40:59.305Z,0.00
2018-07-25T03:41:59.258Z,0.00
2018-07-25T03:43:52.572Z,0.00
2018-07-25T03:44:52.546Z,0.00
2018-07-25T03:46:45.386Z,0.00
2018-07-25T03:47:45.337Z,0.00
2018-07-25T03:49:38.688Z,0.00
2018-07-25T03:50:38.630Z,0.00
2018-07-25T03:52:31.439Z,0.00
2018-07-25T03:53:31.404Z,0.00
2018-07-25T03:55:24.225Z,0.00
2018-07-25T03:56:24.209Z,0.00
2018-07-25T03:58:16.995Z,0.00
2018-07-25T03:59:16.970Z,0.00
2018-07-25T04:01:10.305Z,0.00
2018-07-25T04:02:10.279Z,0.00
2018-07-25T04:04:03.564Z,0.00
2018-07-25T04:05:03.540Z,0.00
2018-07-25T04:06:56.365Z,0.00
2018-07-25T04:07:56.320Z,0.00
2018-07-25T04:09:49.630Z,0.00
2018-07-25T04:10:49.589Z,0.00
2018-07-25T04:12:42.435Z,0.00
2018-07-25T04:13:42.385Z,5.63
2018-07-25T04:15:35.701Z,5.63
2018-07-25T04:16:35.661Z,5.63
2018-07-25T04:18:28.990Z,5.63
2018-07-25T04:19:28.949Z,5.63
2018-07-25T04:21:21.777Z,5.63
2018-07-25T04:22:21.746Z,5.63
2018-07-25T04:24:14.542Z,5.63
2018-07-25T04:25:14.508Z,5.63
2018-07-25T04:27:07.835Z,5.63
2018-07-25T04:28:07.793Z,5.63
2018-07-25T04:30:01.118Z,5.63
2018-07-25T04:31:01.078Z,5.63
2018-07-25T04:32:54.397Z,5.63
2018-07-25T04:33:54.354Z,5.63
2018-07-25T04:35:47.677Z,5.63
2018-07-25T04:36:47.656Z,5.63
2018-07-25T04:38:40.462Z,11.25
2018-07-25T04:39:40.427Z,11.25
2018-07-25T04:41:33.752Z,11.25
2018-07-25T04:42:33.735Z,11.25
2018-07-25T04:44:27.026Z,11.25
2018-07-25T04:45:26.982Z,11.25
2018-07-25T04:47:20.313Z,11.25
2018-07-25T04:48:20.281Z,11.25
2018-07-25T04:50:13.582Z,11.25
2018-07-25T04:51:13.546Z,11.25
2018-07-25T04:53:06.872Z,11.25
2018-07-25T04:54:06.829Z,11.25
2018-07-25T04:56:00.189Z,11.25
2018-07-25T04:57:00.122Z,11.25
2018-07-25T04:58:53.444Z,11.25
2018-07-25T04:59:53.401Z,11.25
2018-07-25T05:01:46.208Z,16.88
2018-07-25T05:02:46.178Z,16.88
2018-07-25T05:04:39.028Z,16.88
2018-07-25T05:05:38.963Z,16.88
2018-07-25T05:07:32.281Z,16.88
2018-07-25T05:08:32.248Z,16.88
2018-07-25T05:10:25.585Z,16.88
2018-07-25T05:11:25.533Z,16.88
2018-07-25T05:13:18.858Z,16.88
2018-07-25T05:14:18.828Z,16.88
2018-07-25T05:16:12.134Z,16.88
2018-07-25T05:17:12.088Z,16.88
2018-07-25T05:19:04.920Z,16.88
2018-07-25T05:20:04.880Z,16.88
2018-07-25T05:21:58.195Z,16.88
2018-07-25T05:22:58.170Z,16.88
2018-07-25T05:24:51.495Z,16.88
2018-07-25T05:25:51.463Z,16.88
2018-07-25T05:27:44.770Z,16.88
2018-07-25T05:28:44.735Z,16.88
2018-07-25T05:30:38.060Z,16.88
2018-07-25T05:31:38.015Z,22.50
2018-07-25T05:33:30.869Z,22.50
2018-07-25T05:34:30.791Z,22.50
2018-07-25T05:36:24.126Z,22.50
2018-07-25T05:37:24.089Z,22.50
2018-07-25T05:39:16.910Z,22.50
2018-07-25T05:40:16.868Z,22.50
2018-07-25T05:42:09.697Z,22.50
2018-07-25T05:43:09.661Z,22.50
2018-07-25T05:45:02.479Z,22.50
2018-07-25T05:46:02.441Z,22.50
2018-07-25T05:47:55.771Z,22.50
2018-07-25T05:48:55.726Z,22.50
2018-07-25T05:50:49.046Z,22.50
2018-07-25T05:51:49.007Z,22.50
2018-07-25T05:53:42.322Z,22.50
2018-07-25T05:54:42.295Z,22.50
2018-07-25T05:56:35.642Z,22.50
2018-07-25T05:57:35.602Z,22.50
2018-07-25T05:59:28.410Z,22.50
2018-07-25T06:00:28.355Z,22.50
2018-07-25T06:02:21.195Z,28.13
2018-07-25T06:03:21.196Z,28.13
2018-07-25T06:05:13.991Z,28.13
2018-07-25T06:06:14.004Z,28.13
2018-07-25T06:08:07.248Z,28.13
2018-07-25T06:09:07.214Z,28.13
2018-07-25T06:11:00.572Z,28.13
2018-07-25T06:12:00.512Z,28.13
2018-07-25T06:13:53.322Z,28.13
2018-07-25T06:14:53.296Z,28.13
2018-07-25T06:16:46.617Z,28.13
2018-07-25T06:17:46.578Z,28.13
2018-07-25T06:19:39.897Z,28.13
2018-07-25T06:20:39.876Z,28.13
2018-07-25T06:22:32.711Z,28.13
2018-07-25T06:23:32.649Z,28.13
2018-07-25T06:25:25.963Z,28.13
2018-07-25T06:26:25.958Z,28.13
2018-07-25T06:28:19.277Z,33.75
2018-07-25T06:29:19.228Z,33.75
2018-07-25T06:31:12.583Z,33.75
2018-07-25T06:32:12.512Z,33.75
2018-07-25T06:34:05.828Z,33.75
2018-07-25T06:35:05.793Z,33.75
2018-07-25T06:36:58.631Z,33.75
2018-07-25T06:37:58.648Z,33.75
2018-07-25T06:39:51.914Z,33.75
2018-07-25T06:40:51.885Z,33.75
2018-07-25T06:42:45.233Z,33.75
2018-07-25T06:43:45.183Z,33.75
2018-07-25T06:45:38.491Z,33.75
2018-07-25T06:46:38.454Z,33.75
2018-07-25T06:48:31.793Z,39.38
2018-07-25T06:49:31.758Z,39.38
2018-07-25T06:51:25.084Z,39.38
2018-07-25T06:52:25.049Z,39.38
2018-07-25T06:54:18.379Z,39.38
2018-07-25T06:55:18.358Z,39.38
2018-07-25T06:57:11.702Z,39.38
2018-07-25T06:58:11.615Z,39.38
2018-07-25T07:00:04.948Z,39.38
2018-07-25T07:01:04.909Z,39.38
2018-07-25T07:02:57.729Z,45.00
2018-07-25T07:03:57.697Z,45.00
2018-07-25T07:05:50.998Z,45.00
2018-07-25T07:06:51.027Z,45.00
2018-07-25T07:08:43.792Z,45.00
2018-07-25T07:09:43.767Z,50.63
2018-07-25T07:11:36.587Z,50.63
2018-07-25T07:12:36.568Z,56.25
2018-07-25T07:14:29.408Z,56.25
2018-07-25T07:15:29.339Z,61.88
2018-07-25T07:17:22.692Z,67.50
2018-07-25T07:18:22.658Z,67.50
2018-07-25T07:20:15.483Z,67.50
2018-07-25T07:21:15.445Z,67.50
2018-07-25T07:23:08.761Z,67.50
2018-07-25T07:24:08.738Z,67.50
2018-07-25T07:26:02.040Z,67.50
2018-07-25T07:27:02.006Z,67.50
2018-07-25T07:28:55.325Z,67.50
2018-07-25T07:29:55.303Z,67.50
2018-07-25T07:31:48.614Z,67.50
2018-07-25T07:32:48.583Z,67.50
2018-07-25T07:34:41.411Z,67.50
2018-07-25T07:35:41.375Z,67.50
2018-07-25T07:37:34.225Z,67.50
2018-07-25T07:38:34.171Z,67.50
2018-07-25T07:40:26.997Z,67.50
2018-07-25T07:41:26.964Z,67.50
2018-07-25T07:43:20.297Z,67.50
2018-07-25T07:44:20.270Z,67.50
2018-07-25T07:46:13.590Z,67.50
2018-07-25T07:47:13.545Z,67.50
2018-07-25T07:49:06.881Z,61.88
2018-07-25T07:50:06.829Z,61.88
2018-07-25T07:51:59.692Z,61.88
2018-07-25T07:52:59.621Z,61.88
2018-07-25T07:54:52.955Z,61.88
2018-07-25T07:55:52.916Z,61.88
2018-07-25T07:57:46.236Z,61.88
2018-07-25T07:58:46.211Z,67.50
2018-07-25T08:00:39.542Z,67.50
2018-07-25T08:01:39.505Z,67.50
2018-07-25T08:03:32.830Z,67.50
2018-07-25T08:04:32.789Z,67.50
2018-07-25T08:06:26.121Z,67.50
2018-07-25T08:07:26.081Z,67.50
2018-07-25T08:09:18.901Z,67.50
2018-07-25T08:10:18.873Z,67.50
2018-07-25T08:12:11.682Z,67.50
2018-07-25T08:13:11.664Z,67.50
2018-07-25T08:15:04.992Z,73.13
2018-07-25T08:16:04.945Z,73.13
2018-07-25T08:17:57.813Z,73.13
2018-07-25T08:18:57.750Z,73.13
2018-07-25T08:20:50.584Z,73.13
2018-07-25T08:21:50.544Z,73.13
2018-07-25T08:23:44.137Z,73.13
2018-07-25T08:24:43.356Z,73.13
2018-07-25T08:26:36.226Z,73.13
2018-07-25T08:27:36.178Z,73.13
2018-07-25T08:29:29.746Z,73.13
2018-07-25T08:30:29.521Z,73.13
2018-07-25T08:32:22.827Z,73.13
2018-07-25T08:33:22.785Z,73.13
2018-07-25T08:35:15.675Z,73.13
2018-07-25T08:36:15.582Z,73.13
2018-07-25T08:38:08.902Z,78.75
2018-07-25T08:39:08.882Z,78.75
2018-07-25T08:41:01.723Z,78.75
2018-07-25T08:42:01.684Z,78.75
2018-07-25T08:43:54.490Z,78.75
2018-07-25T08:44:54.472Z,78.75
2018-07-25T08:46:47.847Z,78.75
2018-07-25T08:47:47.767Z,84.38
2018-07-25T08:49:41.087Z,84.38
2018-07-25T08:50:41.063Z,84.38
2018-07-25T08:52:34.425Z,84.38
2018-07-25T08:53:34.353Z,84.38
2018-07-25T08:55:27.718Z,90.00
2018-07-25T08:56:27.651Z,90.00
2018-07-25T08:58:21.007Z,90.00
2018-07-25T08:59:20.983Z,90.00
2018-07-25T09:01:14.318Z,95.63
2018-07-25T09:02:14.292Z,95.63
2018-07-25T09:04:07.588Z,95.63
2018-07-25T09:05:07.583Z,95.63
2018-07-25T09:07:00.909Z,95.63
2018-07-25T09:08:00.857Z,95.63
2018-07-25T09:09:54.202Z,95.63
2018-07-25T09:10:54.164Z,95.63
2018-07-25T09:12:47.593Z,95.63
2018-07-25T09:13:47.484Z,95.63
2018-07-25T09:15:40.807Z,95.63
2018-07-25T09:16:40.768Z,95.63
2018-07-25T09:18:34.073Z,95.63
2018-07-25T09:19:34.059Z,95.63
2018-07-25T09:21:26.892Z,95.63
2018-07-25T09:22:26.853Z,95.63
2018-07-25T09:24:20.189Z,95.63
2018-07-25T09:25:20.264Z,95.63
2018-07-25T09:27:13.483Z,95.63
2018-07-25T09:28:13.462Z,95.63
2018-07-25T09:30:06.774Z,84.38
2018-07-25T09:31:06.743Z,84.38
2018-07-25T09:33:00.092Z,84.38
2018-07-25T09:34:00.089Z,84.38
2018-07-25T09:35:52.869Z,90.00
2018-07-25T09:36:52.843Z,90.00
2018-07-25T09:38:46.174Z,90.00
2018-07-25T09:39:46.144Z,90.00
2018-07-25T09:41:39.478Z,90.00
2018-07-25T09:42:39.443Z,90.00
2018-07-25T09:44:32.783Z,90.00
2018-07-25T09:45:32.742Z,90.00
2018-07-25T09:47:26.113Z,95.63
2018-07-25T09:48:26.071Z,95.63
2018-07-25T09:50:18.874Z,95.63
2018-07-25T09:51:18.843Z,95.63
2018-07-25T09:53:11.809Z,95.63
2018-07-25T09:54:11.663Z,95.63
2018-07-25T09:56:04.503Z,101.25
2018-07-25T09:57:04.451Z,101.25
2018-07-25T09:58:57.831Z,101.25
2018-07-25T09:59:57.755Z,106.88
2018-07-25T10:01:50.586Z,140.63
2018-07-25T10:02:50.569Z,208.13
2018-07-25T10:04:43.440Z,337.50
2018-07-25T10:05:43.396Z,376.88
2018-07-25T10:07:36.377Z,399.38
2018-07-25T10:08:36.192Z,405.00
2018-07-25T10:10:29.519Z,399.38
2018-07-25T10:11:29.515Z,405.00
2018-07-25T10:13:22.349Z,405.00
2018-07-25T10:14:22.311Z,405.00
2018-07-25T10:16:15.634Z,405.00
2018-07-25T10:17:15.651Z,405.00
2018-07-25T10:19:08.957Z,416.25
2018-07-25T10:20:08.950Z,410.63
2018-07-25T10:22:02.272Z,421.88
2018-07-25T10:23:02.313Z,416.25
2018-07-25T10:24:55.594Z,421.88
2018-07-25T10:25:55.570Z,421.88
2018-07-25T10:27:48.431Z,427.50
2018-07-25T10:28:48.401Z,427.50
2018-07-25T10:30:41.794Z,427.50
2018-07-25T10:31:41.723Z,427.50
2018-07-25T10:33:35.063Z,427.50
2018-07-25T10:34:35.043Z,427.50
2018-07-25T10:36:27.907Z,438.75
2018-07-25T10:37:27.883Z,433.13
2018-07-25T10:39:21.228Z,438.75
2018-07-25T10:40:21.203Z,444.38
2018-07-25T10:42:14.553Z,438.75
2018-07-25T10:43:14.521Z,433.13
2018-07-25T10:45:07.372Z,433.13
2018-07-25T10:46:07.362Z,433.13
2018-07-25T10:48:00.302Z,438.75
2018-07-25T10:49:00.263Z,444.38
2018-07-25T10:50:53.658Z,438.75
2018-07-25T10:51:53.606Z,433.13
2018-07-25T10:53:46.948Z,433.13
2018-07-25T10:54:46.942Z,433.13
2018-07-25T10:56:39.821Z,427.50
2018-07-25T10:57:39.773Z,427.50
2018-07-25T10:59:32.637Z,427.50
2018-07-25T11:00:32.616Z,438.75
2018-07-25T11:02:25.461Z,421.88
2018-07-25T11:03:25.450Z,421.88
2018-07-25T11:05:18.288Z,433.13
2018-07-25T11:06:18.278Z,433.13
2018-07-25T11:08:11.639Z,438.75
2018-07-25T11:09:11.608Z,438.75
2018-07-25T11:11:04.987Z,438.75
2018-07-25T11:12:04.943Z,444.38
2018-07-25T11:13:58.315Z,450.00
2018-07-25T11:14:58.272Z,444.38
2018-07-25T11:16:51.632Z,450.00
2018-07-25T11:17:51.603Z,450.00
2018-07-25T11:19:44.972Z,444.38
2018-07-25T11:20:44.941Z,444.38
2018-07-25T11:22:37.799Z,450.00
2018-07-25T11:23:37.769Z,450.00
2018-07-25T11:25:31.110Z,444.38
2018-07-25T11:26:31.095Z,444.38
2018-07-25T11:28:24.459Z,450.00
2018-07-25T11:29:24.453Z,444.38
2018-07-25T11:31:17.802Z,444.38
2018-07-25T11:32:17.783Z,450.00
2018-07-25T11:34:11.209Z,444.38
2018-07-25T11:35:11.109Z,433.13
2018-07-25T11:37:03.958Z,427.50
2018-07-25T11:38:03.965Z,427.50
2018-07-25T11:39:57.305Z,438.75
2018-07-25T11:40:57.279Z,421.88
2018-07-25T11:42:50.663Z,438.75
2018-07-25T11:43:50.735Z,444.38
2018-07-25T11:45:43.978Z,444.38
2018-07-25T11:46:43.944Z,450.00
2018-07-25T11:48:36.801Z,455.63
2018-07-25T11:49:36.797Z,450.00
2018-07-25T11:51:30.150Z,450.00
2018-07-25T11:52:30.135Z,444.38
2018-07-25T11:54:23.498Z,438.75
2018-07-25T11:55:23.567Z,444.38
2018-07-25T11:57:16.345Z,444.38
2018-07-25T11:58:16.327Z,444.38
2018-07-25T12:00:11.270Z,450.00
2018-07-25T12:01:09.662Z,455.63
2018-07-25T12:03:02.973Z,466.88
2018-07-25T12:04:02.976Z,461.25
2018-07-25T12:05:56.344Z,461.25
2018-07-25T12:06:56.284Z,461.25
2018-07-25T12:08:49.683Z,461.25
2018-07-25T12:09:49.618Z,455.63
2018-07-25T12:11:42.475Z,438.75
2018-07-25T12:12:42.463Z,438.75
2018-07-25T12:14:35.325Z,438.75
2018-07-25T12:15:35.310Z,438.75
2018-07-25T12:17:28.169Z,444.38
2018-07-25T12:18:28.140Z,450.00
2018-07-25T12:20:21.035Z,450.00
2018-07-25T12:21:21.049Z,450.00
2018-07-25T12:23:14.335Z,444.38
2018-07-25T12:24:14.346Z,444.38
2018-07-25T12:26:07.701Z,416.25
2018-07-25T12:27:07.679Z,399.38
2018-07-25T12:29:00.555Z,433.13
2018-07-25T12:30:00.505Z,433.13
2018-07-25T12:31:53.880Z,433.13
2018-07-25T12:32:53.820Z,433.13
2018-07-25T12:34:47.189Z,421.88
2018-07-25T12:35:47.185Z,427.50
2018-07-25T12:37:40.564Z,444.38
2018-07-25T12:38:40.499Z,438.75
2018-07-25T12:40:33.846Z,376.88
2018-07-25T12:41:33.884Z,157.50
2018-07-25T12:43:27.208Z,405.00
2018-07-25T12:44:27.182Z,405.00
2018-07-25T12:46:20.030Z,393.75
2018-07-25T12:47:20.031Z,123.75
2018-07-25T12:49:13.376Z,174.38
2018-07-25T12:50:13.346Z,112.50
2018-07-25T12:52:06.700Z,376.88
2018-07-25T12:53:06.694Z,106.88
2018-07-25T12:54:59.531Z,123.75
2018-07-25T12:55:59.506Z,118.13
2018-07-25T12:57:52.871Z,112.50
2018-07-25T12:58:52.845Z,106.88
2018-07-25T13:00:46.190Z,106.88
2018-07-25T13:01:46.163Z,112.50
2018-07-25T13:03:39.020Z,118.13
2018-07-25T13:04:38.977Z,326.25
2018-07-25T13:06:32.331Z,275.63
2018-07-25T13:07:32.343Z,196.88
2018-07-25T13:09:25.212Z,129.38
2018-07-25T13:10:25.194Z,320.63
2018-07-25T13:12:18.487Z,129.38
2018-07-25T13:13:18.468Z,180.00
2018-07-25T13:15:11.323Z,123.75
2018-07-25T13:16:11.288Z,123.75
2018-07-25T13:18:04.179Z,118.13
2018-07-25T13:19:04.125Z,118.13
2018-07-25T13:20:57.451Z,135.00
2018-07-25T13:21:57.448Z,140.63
2018-07-25T13:23:50.797Z,331.88
2018-07-25T13:24:50.763Z,331.88
2018-07-25T13:26:44.086Z,331.88
2018-07-25T13:27:44.073Z,331.88
2018-07-25T13:29:37.456Z,331.88
2018-07-25T13:30:37.394Z,326.25
2018-07-25T13:32:30.776Z,320.63
2018-07-25T13:33:30.734Z,315.00
2018-07-25T13:35:23.589Z,315.00
2018-07-25T13:36:23.558Z,315.00
2018-07-25T13:38:16.384Z,309.38
2018-07-25T13:39:16.374Z,315.00
2018-07-25T13:41:09.732Z,320.63
2018-07-25T13:42:09.704Z,309.38
2018-07-25T13:44:03.058Z,303.75
2018-07-25T13:45:03.017Z,303.75
2018-07-25T13:46:56.415Z,298.13
2018-07-25T13:47:56.347Z,241.88
2018-07-25T13:49:49.213Z,112.50
2018-07-25T13:50:49.174Z,112.50
2018-07-25T13:52:42.013Z,106.88
2018-07-25T13:53:42.000Z,106.88
2018-07-25T13:55:35.365Z,106.88
2018-07-25T13:56:35.327Z,106.88
2018-07-25T13:58:28.657Z,106.88
2018-07-25T13:59:28.645Z,106.88
2018-07-25T14:01:21.993Z,106.88
2018-07-25T14:02:21.974Z,118.13
2018-07-25T14:04:14.810Z,118.13
2018-07-25T14:05:14.816Z,151.88
2018-07-25T14:07:08.188Z,230.63
2018-07-25T14:08:08.115Z,157.50
2018-07-25T14:10:01.446Z,298.13
2018-07-25T14:11:01.429Z,303.75
2018-07-25T14:12:54.784Z,298.13
2018-07-25T14:13:54.740Z,298.13
2018-07-25T14:15:47.614Z,286.88
2018-07-25T14:16:47.572Z,281.25
2018-07-25T14:18:40.409Z,275.63
2018-07-25T14:19:40.407Z,270.00
2018-07-25T14:21:33.250Z,253.13
2018-07-25T14:22:33.210Z,247.50
2018-07-25T14:24:26.148Z,247.50
2018-07-25T14:25:26.039Z,247.50
2018-07-25T14:27:18.922Z,247.50
2018-07-25T14:28:18.876Z,253.13
2018-07-25T14:30:12.278Z,253.13
2018-07-25T14:31:12.201Z,253.13
2018-07-25T14:33:05.584Z,253.13
2018-07-25T14:34:05.552Z,253.13
2018-07-25T14:35:58.875Z,258.75
2018-07-25T14:36:58.861Z,258.75
2018-07-25T14:38:51.720Z,247.50
2018-07-25T14:39:51.767Z,247.50
2018-07-25T14:41:46.054Z,253.13
2018-07-25T14:42:46.011Z,247.50
2018-07-25T14:44:39.396Z,247.50
2018-07-25T14:45:39.364Z,236.25
2018-07-25T14:47:32.740Z,236.25
2018-07-25T14:48:32.707Z,241.88
2018-07-25T14:50:26.017Z,253.13
2018-07-25T14:51:26.191Z,253.13
2018-07-25T14:53:20.368Z,241.88
2018-07-25T14:54:20.429Z,225.00
2018-07-25T14:56:14.670Z,208.13
2018-07-25T14:57:14.661Z,219.38
2018-07-25T14:59:08.051Z,213.75
2018-07-25T15:00:08.038Z,196.88
2018-07-25T15:02:01.359Z,157.50
2018-07-25T15:03:01.337Z,196.88
2018-07-25T15:04:54.692Z,213.75
2018-07-25T15:05:54.677Z,219.38
2018-07-25T15:07:48.042Z,225.00
2018-07-25T15:08:48.021Z,225.00
2018-07-25T15:10:41.332Z,230.63
2018-07-25T15:11:41.313Z,225.00
2018-07-25T15:13:34.668Z,101.25
2018-07-25T15:14:34.641Z,101.25
2018-07-25T15:16:28.009Z,101.25
2018-07-25T15:17:27.988Z,101.25
2018-07-25T15:19:21.335Z,101.25
2018-07-25T15:20:21.298Z,101.25
2018-07-25T15:22:14.138Z,106.88
2018-07-25T15:23:14.111Z,140.63
2018-07-25T15:25:06.989Z,219.38
2018-07-25T15:26:06.941Z,230.63
2018-07-25T15:27:59.791Z,241.88
2018-07-25T15:28:59.852Z,241.88
2018-07-25T15:30:53.116Z,241.88
2018-07-25T15:31:53.089Z,241.88
2018-07-25T15:33:45.917Z,241.88
2018-07-25T15:34:45.903Z,241.88
2018-07-25T15:36:39.233Z,236.25
2018-07-25T15:37:39.203Z,236.25
2018-07-25T15:39:32.554Z,230.63
2018-07-25T15:40:32.533Z,230.63
2018-07-25T15:42:25.908Z,230.63
2018-07-25T15:43:25.854Z,230.63
2018-07-25T15:45:18.706Z,230.63
2018-07-25T15:46:18.676Z,230.63
2018-07-25T15:48:12.033Z,230.63
2018-07-25T15:49:12.013Z,236.25
2018-07-25T15:51:05.364Z,236.25
2018-07-25T15:52:05.328Z,241.88
2018-07-25T15:53:58.191Z,225.00
2018-07-25T15:54:58.156Z,219.38
2018-07-25T15:56:51.008Z,219.38
2018-07-25T15:57:50.968Z,225.00
2018-07-25T15:59:43.903Z,225.00
2018-07-25T16:00:43.800Z,225.00
2018-07-25T16:02:36.734Z,225.00
2018-07-25T16:03:36.623Z,225.00
2018-07-25T16:05:29.975Z,213.75
2018-07-25T16:06:29.948Z,213.75
2018-07-25T16:08:23.288Z,202.50
2018-07-25T16:09:23.254Z,196.88
2018-07-25T16:11:16.626Z,196.88
2018-07-25T16:12:16.593Z,196.88
2018-07-25T16:14:09.928Z,202.50
2018-07-25T16:15:09.898Z,208.13
2018-07-25T16:17:03.289Z,208.13
2018-07-25T16:18:03.229Z,208.13
2018-07-25T16:19:56.541Z,208.13
2018-07-25T16:20:56.553Z,202.50
2018-07-25T16:22:49.888Z,196.88
2018-07-25T16:23:49.859Z,196.88
2018-07-25T16:25:42.710Z,185.63
2018-07-25T16:26:42.698Z,191.25
2018-07-25T16:28:36.045Z,185.63
2018-07-25T16:29:36.001Z,185.63
2018-07-25T16:31:29.038Z,185.63
2018-07-25T16:32:28.830Z,185.63
2018-07-25T16:34:21.710Z,180.00
2018-07-25T16:35:21.683Z,174.38
2018-07-25T16:37:14.543Z,168.75
2018-07-25T16:38:14.518Z,168.75
2018-07-25T16:40:07.876Z,163.13
2018-07-25T16:41:07.829Z,168.75
2018-07-25T16:43:01.186Z,174.38
2018-07-25T16:44:01.144Z,168.75
2018-07-25T16:45:54.582Z,163.13
2018-07-25T16:46:54.482Z,157.50
2018-07-25T16:48:47.834Z,151.88
2018-07-25T16:49:47.840Z,151.88
2018-07-25T16:51:40.641Z,146.25
2018-07-25T16:52:41.406Z,146.25
2018-07-25T16:54:33.973Z,146.25
2018-07-25T16:55:33.921Z,146.25
2018-07-25T16:57:27.264Z,146.25
2018-07-25T16:58:27.240Z,140.63
2018-07-25T17:00:20.104Z,140.63
2018-07-25T17:01:20.059Z,140.63
2018-07-25T17:03:12.916Z,135.00
2018-07-25T17:04:12.897Z,135.00
2018-07-25T17:06:05.716Z,135.00
2018-07-25T17:07:05.690Z,129.38
2018-07-25T17:08:58.516Z,123.75
2018-07-25T17:09:58.503Z,123.75
2018-07-25T17:11:51.351Z,123.75
2018-07-25T17:12:51.307Z,123.75
2018-07-25T17:14:44.151Z,118.13
2018-07-25T17:15:44.154Z,112.50
2018-07-25T17:17:37.001Z,106.88
2018-07-25T17:18:36.965Z,106.88
2018-07-25T17:20:29.847Z,106.88
2018-07-25T17:21:29.765Z,106.88
2018-07-25T17:23:22.609Z,106.88
2018-07-25T17:24:22.579Z,101.25
2018-07-25T17:26:15.942Z,95.63
2018-07-25T17:27:15.916Z,101.25
2018-07-25T17:29:09.222Z,90.00
2018-07-25T17:30:09.210Z,90.00
2018-07-25T17:32:02.566Z,90.00
2018-07-25T17:33:02.527Z,84.38
2018-07-25T17:34:55.876Z,73.13
2018-07-25T17:35:55.827Z,78.75
2018-07-25T17:37:49.172Z,78.75
2018-07-25T17:38:49.136Z,73.13
2018-07-25T17:40:42.035Z,73.13
2018-07-25T17:41:41.945Z,73.13
2018-07-25T17:43:35.276Z,67.50
2018-07-25T17:44:35.246Z,67.50
2018-07-25T17:46:28.108Z,67.50
2018-07-25T17:47:28.073Z,67.50
2018-07-25T17:49:20.931Z,61.88
2018-07-25T17:50:20.953Z,61.88
2018-07-25T17:52:13.726Z,61.88
2018-07-25T17:53:13.688Z,56.25
2018-07-25T17:55:06.528Z,56.25
2018-07-25T17:56:06.513Z,56.25
2018-07-25T17:57:59.385Z,56.25
2018-07-25T17:58:59.316Z,50.63
2018-07-25T18:00:52.164Z,45.00
2018-07-25T18:01:52.133Z,50.63
2018-07-25T18:03:45.509Z,45.00
2018-07-25T18:04:45.436Z,45.00
2018-07-25T18:06:38.796Z,45.00
2018-07-25T18:07:38.766Z,45.00
2018-07-25T18:09:32.091Z,45.00
2018-07-25T18:10:32.068Z,45.00
2018-07-25T18:12:24.917Z,39.38
2018-07-25T18:13:24.882Z,39.38
2018-07-25T18:15:17.762Z,39.38
2018-07-25T18:16:17.737Z,33.75
2018-07-25T18:18:11.093Z,33.75
2018-07-25T18:19:11.041Z,33.75
2018-07-25T18:21:03.884Z,28.13
2018-07-25T18:22:03.853Z,28.13
2018-07-25T18:23:57.174Z,28.13
2018-07-25T18:24:57.159Z,28.13
2018-07-25T18:26:49.979Z,22.50
2018-07-25T18:27:49.989Z,28.13
2018-07-25T18:29:42.823Z,22.50